Latest Weather Observations for Laverton

IDV60801

Issued at 5:32 am EDT Tuesday 21 November 2017 (issued every 30 minutes, with the page automatically refreshed every 10 minutes)

About weather observations | Map of weather stations | Latest weather observations for VIC | Other Formats
Station Details ID: 087031 Name: LAVERTON RAAF Lat: -37.86 Lon: 144.76 Height: 20.1 m
Data from the previous 72 hours. | See also: Recent months at Laverton
Date/Time
EDT
Temp
°C
App
Temp
°C
Dew
Point
°C
Rel
Hum
%
Delta-T
°C
Wind Press
QNH
hPa
Press
MSL
hPa
Rain since
9am
mm
Dir  Spd
km/h
Gust
km/h
Spd
kts
Gust
kts
21/05:30am 15.2 14.3 13.6 90 0.9 NNW 11 13 6 7 1019.8 1019.7 0.0
21/05:00am 15.0 14.0 13.5 91 0.8 NNW 11 13 6 7 1019.5 1019.4 0.0
21/04:30am 16.1 15.0 14.3 89 1.0 NNW 13 15 7 8 1019.5 1019.4 0.0
21/04:00am 15.8 14.5 13.8 88 1.1 NW 13 13 7 7 1019.5 1019.4 0.0
21/03:30am 16.1 15.3 14.1 88 1.1 NW 11 13 6 7 1019.4 1019.3 0.0
21/03:00am 16.6 15.8 14.1 85 1.4 NW 11 13 6 7 1019.4 1019.3 0.0
21/02:30am 17.5 17.0 14.8 84 1.6 WNW 11 13 6 7 1019.5 1019.4 0.0
21/02:00am 18.0 17.6 15.3 84 1.6 WNW 11 13 6 7 1019.4 1019.3 0.0
21/01:30am 17.9 17.5 15.3 85 1.5 WNW 11 13 6 7 1019.5 1019.4 0.0
21/01:00am 18.0 17.7 15.4 85 1.5 WNW 11 13 6 7 1019.8 1019.7 0.0
21/12:30am 18.8 19.0 15.7 82 1.8 WNW 9 13 5 7 1020.1 1020.0 0.0
21/12:00am 20.0 20.2 15.8 77 2.5 WNW 9 9 5 5 1020.0 1019.9 0.0
 
Date/Time
EDT
Temp
°C
App
Temp
°C
Dew
Point
°C
Rel
Hum
%
Delta-T
°C
Wind Press
QNH
hPa
Press
MSL
hPa
Rain since
9am
mm
Dir  Spd
km/h
Gust
km/h
Spd
kts
Gust
kts
20/11:30pm 21.2 21.6 16.4 74 2.9 SW 9 11 5 6 1020.1 1020.0 0.0
20/11:00pm 21.2 23.1 16.6 75 2.8 ESE 2 6 1 3 1020.2 1020.1 0.0
20/10:30pm 21.8 22.3 16.5 72 3.2 ESE 9 11 5 6 1020.2 1020.1 0.0
20/10:00pm 22.5 23.0 16.5 69 3.6 ESE 9 13 5 7 1020.4 1020.3 0.0
20/09:30pm 23.0 22.3 16.3 66 4.1 ESE 15 22 8 12 1020.1 1020.0 0.0
20/09:00pm 23.3 21.8 15.4 61 4.7 ESE 17 24 9 13 1019.9 1019.8 0.0
20/08:30pm 23.6 21.1 14.0 55 5.6 SE 20 32 11 17 1019.8 1019.7 0.0
20/08:00pm 24.6 21.2 13.8 51 6.3 SE 24 35 13 19 1019.5 1019.4 0.0
20/07:30pm 25.4 21.6 13.6 48 6.9 SE 26 39 14 21 1019.2 1019.1 0.0
20/07:00pm 26.2 23.0 15.3 51 6.6 SE 26 39 14 21 1019.0 1018.9 0.0
20/06:30pm 27.5 24.7 14.2 44 8.0 SE 22 35 12 19 1018.8 1018.7 0.0
20/06:00pm 28.6 25.2 12.5 37 9.4 SE 22 35 12 19 1018.7 1018.6 0.0
20/05:30pm 29.0 25.6 12.4 36 9.7 SE 22 33 12 18 1018.8 1018.7 0.0
20/05:00pm 29.3 25.8 12.3 35 9.9 SE 22 33 12 18 1018.9 1018.8 0.0
20/04:30pm 29.1 24.8 12.1 35 9.9 SE 26 35 14 19 1019.1 1019.0 0.0
20/04:00pm 29.4 25.6 12.3 34 10.0 SE 24 33 13 18 1019.3 1019.2 0.0
20/03:30pm 29.1 25.2 12.1 35 9.9 SE 24 33 13 18 1019.6 1019.5 0.0
20/03:00pm 29.2 26.1 11.7 34 10.1 ESE 19 22 10 12 1019.8 1019.7 0.0
20/02:30pm 29.5 27.3 12.0 34 10.2 ESE 15 20 8 11 1020.3 1020.2 0.0
20/02:00pm 30.4 28.0 12.8 34 10.4 E 17 26 9 14 1020.6 1020.5 0.0
20/01:30pm 30.0 28.2 11.0 31 10.9 N 11 19 6 10 1020.9 1020.8 0.0
20/01:00pm 29.9 27.5 11.4 32 10.7 NE 15 24 8 13 1021.2 1021.1 0.0
20/12:30pm 29.3 26.9 11.4 33 10.3 N 15 22 8 12 1021.7 1021.6 0.0
20/12:00pm 29.0 26.0 10.6 32 10.4 NNE 17 28 9 15 1021.9 1021.8 0.0
20/11:30am 27.9 24.6 11.5 36 9.4 NNE 20 28 11 15 1022.3 1022.2 0.0
20/11:00am 26.9 23.5 10.6 36 9.1 NNE 19 24 10 13 1022.6 1022.5 0.0
20/10:30am 26.5 23.1 11.4 39 8.6 NNE 20 30 11 16 1022.8 1022.8 0.0
20/10:00am 25.2 22.0 11.4 42 7.8 NNE 19 28 10 15 1023.0 1023.0 0.0
20/09:30am 24.7 21.6 11.6 44 7.4 N 19 30 10 16 1023.3 1023.3 0.0
20/09:00am 24.0 21.0 12.0 47 6.8 N 19 30 10 16 1023.2 1023.2 0.2
20/08:30am 23.3 19.3 11.7 48 6.5 N 24 35 13 19 1023.1 1023.1 0.2
20/08:00am 20.6 20.2 14.0 66 3.8 NNW 9 17 5 9 1023.1 1023.1 0.2
20/07:30am 17.9 18.4 15.0 83 1.7 WNW 6 7 3 4 1022.9 1022.9 0.2
20/07:00am 16.2 17.8 14.9 92 0.7 CALM 0 0 0 0 1022.6 1022.5 0.2
20/06:30am 14.6 15.1 14.1 97 0.3 NNW 4 7 2 4 1022.3 1022.2 0.2
20/06:00am 14.5 13.7 13.9 96 0.3 NNW 11 13 6 7 1021.7 1021.6 0.2
20/05:30am 14.9 14.1 14.1 95 0.5 NW 11 15 6 8 1021.6 1021.5 0.2
20/05:00am 14.8 14.3 13.7 93 0.6 WNW 9 11 5 6 1021.3 1021.2 0.2
20/04:30am 15.3 14.7 14.5 95 0.5 NNW 11 13 6 7 1021.0 1020.9 0.2
20/04:00am 15.3 15.0 14.3 94 0.6 NW 9 11 5 6 1021.0 1020.9 0.2
20/03:30am 15.5 14.8 14.2 92 0.7 NW 11 13 6 7 1020.9 1020.8 0.2
20/03:00am 16.0 16.2 14.7 92 0.7 WNW 7 9 4 5 1020.7 1020.6 0.2
20/02:30am 15.6 15.2 14.1 91 0.8 WNW 9 11 5 6 1020.7 1020.6 0.2
20/02:00am 15.6 14.9 14.3 92 0.7 WNW 11 13 6 7 1020.6 1020.5 0.2
20/01:30am 15.7 14.6 14.2 91 0.9 NW 13 17 7 9 1020.7 1020.6 0.2
20/01:00am 16.5 15.9 14.5 88 1.1 NW 11 13 6 7 1020.6 1020.5 0.2
20/12:30am 17.4 17.2 14.7 84 1.6 W 9 11 5 6 1020.6 1020.5 0.2
20/12:00am 19.1 19.7 15.2 78 2.3 SW 6 7 3 4 1020.6 1020.5 0.2
 
Date/Time
EDT
Temp
°C
App
Temp
°C
Dew
Point
°C
Rel
Hum
%
Delta-T
°C
Wind Press
QNH
hPa
Press
MSL
hPa
Rain since
9am
mm
Dir  Spd
km/h
Gust
km/h
Spd
kts
Gust
kts
19/11:30pm 19.6 20.3 15.5 77 2.4 S 6 7 3 4 1020.7 1020.6 0.2
19/11:00pm 19.9 21.0 15.5 76 2.6 SSE 4 6 2 3 1020.7 1020.6 0.2
19/10:30pm 20.0 20.7 15.6 76 2.6 SE 6 7 3 4 1020.7 1020.6 0.2
19/10:00pm 20.5 21.1 15.7 74 2.9 SE 7 9 4 5 1020.4 1020.3 0.2
19/09:30pm 20.8 20.5 15.4 71 3.2 ESE 11 13 6 7 1020.3 1020.2 0.2
19/09:00pm 21.4 20.7 15.3 68 3.6 SE 13 19 7 10 1020.2 1020.1 0.2
19/08:30pm 21.9 20.6 14.8 64 4.2 SE 15 20 8 11 1020.1 1020.0 0.2
19/08:00pm 22.2 20.5 14.6 62 4.5 SE 17 26 9 14 1019.9 1019.8 0.2
19/07:30pm 22.9 20.6 14.7 60 4.9 SE 20 28 11 15 1019.8 1019.7 0.2
19/07:00pm 23.4 20.4 14.7 58 5.1 SE 24 37 13 20 1019.7 1019.6 0.2
19/06:30pm 24.0 20.6 14.7 56 5.5 SE 26 37 14 20 1019.8 1019.7 0.2
19/06:00pm 24.4 20.5 14.5 54 5.9 SE 28 39 15 21 1019.5 1019.4 0.2
19/05:30pm 24.8 20.8 15.1 54 5.8 SE 30 43 16 23 1019.5 1019.4 0.2
19/05:00pm 24.0 19.9 15.0 57 5.4 SE 30 41 16 22 1019.5 1019.4 0.2
19/04:30pm 24.2 20.2 15.1 56 5.5 SE 30 46 16 25 1019.4 1019.3 0.2
19/04:00pm 26.4 23.0 15.8 52 6.5 SE 28 41 15 22 1019.2 1019.1 0.2
19/03:30pm 26.2 22.3 14.3 48 7.1 SE 28 37 15 20 1019.4 1019.3 0.2
19/03:00pm 28.0 26.3 14.6 44 8.1 SE 17 26 9 14 1019.5 1019.4 0.2
19/02:30pm 27.9 26.3 14.9 45 7.9 ESE 17 24 9 13 1019.7 1019.6 0.2
19/02:00pm 28.4 25.9 13.5 40 8.8 NE 19 33 10 18 1019.8 1019.7 0.2
19/01:30pm 28.1 26.0 12.5 38 9.1 ENE 15 24 8 13 1020.0 1019.9 0.2
19/01:00pm 27.6 24.7 12.8 40 8.6 NE 20 28 11 15 1020.0 1019.9 0.2
19/12:30pm 27.6 26.1 14.3 44 8.0 NE 15 20 8 11 1020.3 1020.2 0.2
19/12:00pm 26.6 24.4 13.3 43 7.8 NE 17 26 9 14 1020.7 1020.6 0.2
19/11:30am 26.2 24.2 14.0 47 7.2 NE 17 28 9 15 1020.9 1020.8 0.2
19/11:00am 25.2 23.0 13.4 48 6.9 N 17 26 9 14 1021.1 1021.0 0.2
19/10:30am 24.7 22.1 13.9 51 6.4 N 20 32 11 17 1021.1 1021.0 0.2
19/10:00am 23.6 21.6 14.0 55 5.6 NNE 17 26 9 14 1021.2 1021.1 0.0
19/09:30am 23.2 21.4 14.5 58 5.1 NNE 17 22 9 12 1021.1 1021.0 0.0
19/09:00am 21.6 20.9 15.4 68 3.7 NNE 13 19 7 10 1021.0 1020.9 2.0
19/08:30am 20.2 19.7 15.0 72 3.1 NE 11 15 6 8 1020.9 1020.8 2.0
19/08:00am 18.6 19.5 16.6 88 1.2 NE 7 11 4 6 1020.7 1020.6 2.0
19/07:30am 16.7 17.6 16.7 100 0.0 NW 7 9 4 5 1020.2 1020.1 2.0
19/07:00am 15.6 17.1 15.6 100 0.0 WSW 2 6 1 3 1019.8 1019.7 2.0
19/06:36am 14.2 15.5 14.2 100 0.0 CALM 0 0 0 0 1019.6 1019.5 2.0
19/06:30am 14.0 15.3 14.0 100 0.0 CALM 0 0 0 0 1019.5 1019.4 2.0
19/06:18am 14.0 15.3 14.0 100 0.0 CALM 0 0 0 0 1019.4 1019.3 2.0
19/06:00am 14.2 15.5 14.2 100 0.0 CALM 0 6 0 3 1019.2 1019.1 2.0
19/05:30am 14.1 15.4 14.1 100 0.0 CALM 0 0 0 0 1018.8 1018.7 2.0
19/05:21am 14.2 15.5 14.2 100 0.0 CALM 0 0 0 0 1018.7 1018.6 2.0
19/05:00am 14.1 14.6 14.1 100 0.0 NW 4 7 2 4 1018.5 1018.4 2.0
19/04:30am 14.3 14.5 14.3 100 0.0 NW 6 7 3 4 1018.6 1018.5 2.0
19/04:25am 14.4 15.4 14.4 100 0.0 NW 2 7 1 4 1018.6 1018.5 2.0
19/04:00am 14.5 15.9 14.5 100 0.0 CALM 0 0 0 0 1018.6 1018.5 2.0
19/03:30am 14.7 15.1 14.7 100 0.0 NW 6 7 3 4 1018.6 1018.5 2.0
19/03:00am 15.2 16.9 15.2 100 0.0 CALM 0 0 0 0 1018.4 1018.3 2.0
19/02:30am 15.6 16.3 15.6 100 0.0 WNW 6 6 3 3 1018.4 1018.3 2.0
19/02:00am 15.7 16.4 15.7 100 0.0 N 6 7 3 4 1018.7 1018.6 2.0
19/01:30am 15.9 16.2 15.9 100 0.0 NNE 9 11 5 6 1018.6 1018.5 2.0
19/01:00am 16.0 16.8 15.8 99 0.1 NNW 6 7 3 4 1018.7 1018.6 2.0
19/12:30am 16.5 17.0 16.5 100 0.0 N 9 11 5 6 1018.7 1018.6 2.0
19/12:00am 16.5 17.6 16.5 100 0.0 NNE 6 7 3 4 1018.7 1018.6 2.0
 
Date/Time
EDT
Temp
°C
App
Temp
°C
Dew
Point
°C
Rel
Hum
%
Delta-T
°C
Wind Press
QNH
hPa
Press
MSL
hPa
Rain since
9am
mm
Dir  Spd
km/h
Gust
km/h
Spd
kts
Gust
kts
18/11:30pm 17.1 18.2 17.1 100 0.0 NNE 7 7 4 4 1018.5 1018.4 2.0
18/11:00pm 17.0 18.0 16.8 99 0.1 N 7 9 4 5 1018.2 1018.1 2.0
18/10:30pm 17.6 20.0 17.0 96 0.4 CALM 0 0 0 0 1018.1 1018.0 2.0
18/10:00pm 18.2 20.5 16.7 91 0.9 CALM 0 0 0 0 1018.1 1018.0 2.0
18/09:30pm 18.7 20.5 16.5 87 1.3 SSE 2 6 1 3 1017.7 1017.6 2.0
18/09:00pm 19.3 20.4 16.5 84 1.7 SE 6 7 3 4 1017.2 1017.1 2.0
18/08:30pm 19.4 20.0 16.8 85 1.6 SE 9 11 5 6 1016.9 1016.8 2.0
18/08:00pm 19.7 20.7 16.3 81 2.0 E 6 7 3 4 1016.3 1016.2 2.0
18/07:30pm 19.8 19.8 16.3 80 2.1 NNW 11 19 6 10 1015.9 1015.8 2.0
18/07:00pm 19.3 19.1 16.7 85 1.6 NNE 13 19 7 10 1016.2 1016.1 2.0
18/06:30pm 19.4 17.9 16.4 83 1.8 NE 19 26 10 14 1016.1 1016.0 1.4
18/06:00pm 19.7 16.0 16.0 79 2.2 ENE 30 39 16 21 1016.3 1016.2 0.8
18/05:48pm 19.6 15.6 16.6 83 1.8 ENE 33 46 18 25 1016.2 1016.1 0.8
18/05:31pm 19.5 15.5 17.5 88 1.2 ENE 35 46 19 25 1016.2 1016.1 0.4
18/05:30pm 19.6 15.5 17.4 87 1.3 ENE 35 44 19 24 1016.2 1016.1 0.2
18/05:24pm 20.8 16.7 16.4 76 2.7 E 33 46 18 25 1016.2 1016.1 0.0
18/05:00pm 25.8 22.6 16.4 56 5.8 SE 28 37 15 20 1014.8 1014.7 0.0
18/04:30pm 26.1 23.2 15.2 51 6.6 SSE 24 35 13 19 1014.7 1014.6 0.0
18/04:00pm 26.7 24.7 15.4 50 6.9 SSE 20 30 11 16 1014.7 1014.6 0.0
18/03:30pm 26.7 23.7 14.8 48 7.2 SSE 24 32 13 17 1014.7 1014.6 0.0
18/03:00pm 28.0 24.3 15.0 45 7.9 SSE 28 35 15 19 1014.9 1014.8 0.0
18/02:30pm 27.2 25.0 14.9 47 7.4 SE 20 28 11 15 1015.2 1015.1 0.0
18/02:00pm 27.8 25.9 15.1 46 7.7 SE 19 24 10 13 1015.4 1015.3 0.0
18/01:30pm 26.2 24.8 14.6 48 6.9 ESE 15 22 8 12 1015.7 1015.6 0.0
18/01:00pm 26.2 24.5 14.6 48 6.9 SE 17 22 9 12 1015.9 1015.8 0.0
18/12:30pm 26.1 24.8 14.9 50 6.7 ESE 15 22 8 12 1016.1 1016.0 0.0
18/12:00pm 25.3 24.0 14.7 51 6.3 ESE 15 22 8 12 1016.1 1016.0 0.0
18/11:30am 25.0 23.8 15.0 53 6.0 SE 15 20 8 11 1016.2 1016.1 0.0
18/11:00am 24.9 24.2 15.5 56 5.7 ENE 13 20 7 11 1016.3 1016.2 0.0
18/10:30am 23.9 22.7 15.1 58 5.3 ESE 15 28 8 15 1016.5 1016.4 0.0
18/10:00am 23.0 22.8 14.8 60 4.9 ESE 9 13 5 7 1016.7 1016.6 0.0
18/09:30am 22.1 21.0 14.2 61 4.6 ENE 13 19 7 10 1016.7 1016.6 0.0
18/09:00am 21.0 20.5 13.9 64 4.1 ENE 9 13 5 7 1016.8 1016.7 6.8
18/08:30am 19.7 19.7 13.6 68 3.5 NE 6 9 3 5 1016.7 1016.6 6.8
18/08:00am 17.7 18.0 14.6 82 1.8 N 6 9 3 5 1016.7 1016.6 6.8
18/07:30am 16.3 17.1 16.3 100 0.0 NNW 7 7 4 4 1016.3 1016.2 6.8
18/07:03am 15.3 17.0 15.3 100 0.0 CALM 0 6 0 3 1016.2 1016.1 6.8
18/07:00am 15.2 16.9 15.2 100 0.0 CALM 0 0 0 0 1016.1 1016.0 6.8
18/06:30am 14.1 15.4 14.1 100 0.0 CALM 0 0 0 0 1015.8 1015.7 6.8
18/06:00am 14.2 14.4 14.2 100 0.0 NE 6 9 3 5 1015.5 1015.4 6.8
18/05:35am 14.5 14.6 14.5 100 0.0 NW 7 9 4 5 1015.1 1015.0 6.8

Other Formats:

Comma delimited format used in spreadsheet applications
http://www.bom.gov.au/fwo/IDV60801/IDV60801.94865.axf

JavaScript Object Notation format (JSON) in row-major order
http://www.bom.gov.au/fwo/IDV60801/IDV60801.94865.json